Time;durP1;ratioP1;P1;durP2;ratioP2;P2;SDS_P1;SDS_P2;PMS_P1;PMS_P2;Temp;Humidity;BMP_temperature;BMP_pressure;BME280_temperature;BME280_humidity;BME280_pressure;Samples;Min_cycle;Max_cycle;Signal;HPM_P1;HPM_P2
2023/07/17 00:02:20;;;;;;;7.75;5.20;;;17.20;99.90;;;;;;5057150;28;20284;-79
2023/07/17 00:04:46;;;;;;;8.40;5.00;;;17.20;99.90;;;;;;5059167;28;20253;-79
2023/07/17 00:07:12;;;;;;;9.50;5.30;;;17.20;99.90;;;;;;5059493;28;20206;-79
2023/07/17 00:09:37;;;;;;;7.85;4.55;;;17.10;99.90;;;;;;5056941;28;20182;-79
2023/07/17 00:12:03;;;;;;;10.48;5.13;;;17.20;99.90;;;;;;5057098;28;20182;-79
2023/07/17 00:14:29;;;;;;;10.95;4.68;;;17.10;99.90;;;;;;5056648;28;20174;-79
2023/07/17 00:16:55;;;;;;;6.55;4.40;;;17.10;99.90;;;;;;5056559;28;20178;-79
2023/07/17 00:19:21;;;;;;;7.95;4.85;;;17.10;99.90;;;;;;5056180;28;20182;-79
2023/07/17 00:21:47;;;;;;;7.07;4.55;;;17.00;99.90;;;;;;5056216;28;20182;-79
2023/07/17 00:24:12;;;;;;;8.07;4.88;;;17.00;99.90;;;;;;5056149;28;20190;-79
2023/07/17 00:26:38;;;;;;;7.82;5.18;;;17.00;99.90;;;;;;5056628;28;20277;-79
2023/07/17 00:29:22;;;;;;;6.15;4.40;;;16.90;99.90;;;;;;5056157;28;20198;-79
2023/07/17 00:31:48;;;;;;;8.88;5.00;;;16.90;99.90;;;;;;5056054;28;20265;-79
2023/07/17 00:34:13;;;;;;;7.43;4.80;;;17.00;99.90;;;;;;5056620;28;20217;-79
2023/07/17 00:36:39;;;;;;;7.80;5.13;;;16.90;99.90;;;;;;5056014;28;20269;-79
2023/07/17 00:39:05;;;;;;;9.10;5.05;;;16.80;99.90;;;;;;5040752;28;20186;-79
2023/07/17 00:41:30;;;;;;;7.00;4.70;;;16.60;99.90;;;;;;5037777;28;20667;-79
2023/07/17 00:43:56;;;;;;;9.35;5.15;;;16.50;99.90;;;;;;5037169;28;20217;-78
2023/07/17 00:46:23;;;;;;;10.32;6.00;;;16.50;99.90;;;;;;5038080;28;20179;-79
2023/07/17 00:48:49;;;;;;;11.48;5.88;;;16.40;99.90;;;;;;5038400;28;20195;-79
2023/07/17 00:51:15;;;;;;;11.82;5.57;;;16.40;99.90;;;;;;5039171;28;20201;-79
2023/07/17 00:53:43;;;;;;;7.88;5.10;;;16.30;99.90;;;;;;5035951;28;20171;-79
2023/07/17 00:56:10;;;;;;;9.98;5.75;;;16.10;99.90;;;;;;5036225;28;20199;-79
2023/07/17 00:58:36;;;;;;;12.05;5.68;;;16.10;99.90;;;;;;5036762;28;20718;-79
2023/07/17 01:01:03;;;;;;;10.43;5.88;;;16.10;99.90;;;;;;5036348;28;20179;-79
2023/07/17 01:03:30;;;;;;;9.45;5.95;;;16.00;99.90;;;;;;5037412;28;20610;-79
2023/07/17 01:05:59;;;;;;;9.98;5.53;;;16.00;99.90;;;;;;5036459;28;20175;-79
2023/07/17 01:08:25;;;;;;;9.13;5.03;;;16.00;99.90;;;;;;5035069;28;20588;-79
2023/07/17 01:10:51;;;;;;;8.80;5.13;;;16.00;99.90;;;;;;5036342;28;20645;-79
2023/07/17 01:13:17;;;;;;;13.18;5.20;;;16.00;99.90;;;;;;5034879;28;20266;-79
2023/07/17 01:15:43;;;;;;;12.15;5.78;;;16.00;99.90;;;;;;5035148;28;20171;-79
2023/07/17 01:18:10;;;;;;;7.30;5.10;;;16.10;99.90;;;;;;5035434;28;20199;-79
2023/07/17 01:20:35;;;;;;;10.38;5.35;;;16.10;99.90;;;;;;5038938;28;20246;-79
2023/07/17 01:23:05;;;;;;;11.25;5.40;;;16.10;99.90;;;;;;5036693;28;20209;-79
2023/07/17 01:25:31;;;;;;;9.25;5.43;;;16.10;99.90;;;;;;5035787;28;20175;-79
2023/07/17 01:27:57;;;;;;;8.98;5.13;;;16.10;99.90;;;;;;5034483;28;20207;-79
2023/07/17 01:30:24;;;;;;;12.68;5.40;;;16.30;99.90;;;;;;5034610;28;20179;-79
2023/07/17 01:32:50;;;;;;;10.10;4.78;;;16.30;99.90;;;;;;5034199;28;20202;-79
2023/07/17 01:35:16;;;;;;;9.82;5.18;;;16.30;99.90;;;;;;5034595;28;20183;-79
2023/07/17 01:37:42;;;;;;;8.82;5.25;;;16.40;99.90;;;;;;5034449;28;20741;-79
2023/07/17 01:40:10;;;;;;;9.75;5.20;;;16.40;99.90;;;;;;5034529;28;20186;-79
2023/07/17 01:42:36;;;;;;;10.80;5.07;;;16.40;99.90;;;;;;5036474;28;20177;-79
2023/07/17 01:45:03;;;;;;;8.98;5.10;;;16.50;99.90;;;;;;5036948;28;20179;-79
2023/07/17 01:47:30;;;;;;;8.70;4.80;;;16.50;99.90;;;;;;5036575;28;20213;-79
2023/07/17 01:49:55;;;;;;;9.82;5.32;;;16.60;99.90;;;;;;5042515;28;20178;-79
2023/07/17 01:52:21;;;;;;;9.90;5.20;;;16.70;99.90;;;;;;5041194;28;20635;-79
2023/07/17 01:54:47;;;;;;;10.25;5.35;;;16.60;99.90;;;;;;5039633;28;20175;-79
2023/07/17 01:57:13;;;;;;;10.32;5.75;;;16.60;99.90;;;;;;5039445;28;20218;-79
2023/07/17 01:59:38;;;;;;;10.45;5.40;;;16.60;99.90;;;;;;5041767;28;20198;-79
2023/07/17 02:02:05;;;;;;;10.02;5.53;;;16.60;99.90;;;;;;5040247;28;20171;-79
2023/07/17 02:04:31;;;;;;;8.57;5.35;;;16.60;99.90;;;;;;5038979;28;20171;-79
2023/07/17 02:06:56;;;;;;;10.32;5.75;;;16.60;99.90;;;;;;5040075;28;20187;-79
2023/07/17 02:09:23;;;;;;;9.15;5.72;;;16.60;99.90;;;;;;5039058;28;20206;-79
2023/07/17 02:11:48;;;;;;;12.63;5.15;;;16.50;99.90;;;;;;5038810;28;20180;-79
2023/07/17 02:14:14;;;;;;;9.75;6.00;;;16.50;99.90;;;;;;5040013;28;20201;-79
2023/07/17 02:16:40;;;;;;;10.63;5.88;;;16.60;99.90;;;;;;5038847;28;20185;-79
2023/07/17 02:19:06;;;;;;;9.95;5.47;;;16.60;99.90;;;;;;5039756;28;20175;-79
2023/07/17 02:21:32;;;;;;;9.27;5.78;;;16.50;99.90;;;;;;5039862;28;20175;-79
2023/07/17 02:23:58;;;;;;;9.63;5.88;;;16.50;99.90;;;;;;5040273;28;20175;-79
2023/07/17 02:26:24;;;;;;;11.98;5.45;;;16.60;99.90;;;;;;5038529;28;20175;-79
2023/07/17 02:28:50;;;;;;;7.97;4.75;;;16.60;99.90;;;;;;5040101;28;20282;-79
2023/07/17 02:31:16;;;;;;;8.93;5.03;;;16.60;99.90;;;;;;5038856;28;20261;-79
2023/07/17 02:33:42;;;;;;;8.32;4.70;;;16.60;99.90;;;;;;5038362;28;20175;-79
2023/07/17 02:36:07;;;;;;;11.23;5.10;;;16.60;99.90;;;;;;5038466;28;20183;-79
2023/07/17 02:38:33;;;;;;;8.15;4.53;;;16.60;99.90;;;;;;5039377;28;20786;-79
2023/07/17 02:40:59;;;;;;;9.82;5.38;;;16.60;99.90;;;;;;5038323;28;20175;-79
2023/07/17 02:43:25;;;;;;;11.45;5.10;;;16.60;99.90;;;;;;5040180;28;20163;-79
2023/07/17 02:45:51;;;;;;;7.85;4.70;;;16.60;99.90;;;;;;5039280;28;20177;-79
2023/07/17 02:48:16;;;;;;;9.10;5.03;;;16.60;99.90;;;;;;5038934;28;20683;-79
2023/07/17 02:50:42;;;;;;;11.40;4.25;;;16.50;99.90;;;;;;5038186;28;20176;-79
2023/07/17 02:53:08;;;;;;;7.63;5.00;;;16.60;99.90;;;;;;5039380;28;20171;-79
2023/07/17 02:55:34;;;;;;;10.18;5.03;;;16.60;99.90;;;;;;5038700;28;20167;-79
2023/07/17 02:58:00;;;;;;;5.60;4.03;;;16.60;99.90;;;;;;5038093;28;20202;-79
2023/07/17 03:00:25;;;;;;;9.30;4.68;;;16.60;99.90;;;;;;5037408;28;20270;-79
2023/07/17 03:02:51;;;;;;;9.98;4.20;;;16.70;99.90;;;;;;5038473;28;20175;-79
2023/07/17 03:05:17;;;;;;;8.13;3.67;;;16.60;99.90;;;;;;5038935;28;20538;-79
2023/07/17 03:07:50;;;;;;;8.30;3.80;;;16.70;99.90;;;;;;5038018;28;20674;-79
2023/07/17 03:10:17;;;;;;;7.57;4.05;;;16.60;99.90;;;;;;5038974;28;20159;-80
2023/07/17 03:12:43;;;;;;;8.63;4.10;;;16.60;99.90;;;;;;5038646;28;20167;-79
2023/07/17 03:15:09;;;;;;;6.57;3.75;;;16.60;99.90;;;;;;5038996;28;20178;-79
2023/07/17 03:17:35;;;;;;;10.80;4.35;;;16.60;99.90;;;;;;5038372;28;20203;-79
2023/07/17 03:20:03;;;;;;;8.43;3.97;;;16.60;99.90;;;;;;5037520;28;20270;-79
2023/07/17 03:22:29;;;;;;;5.32;3.70;;;16.60;99.90;;;;;;5037461;28;20179;-79
2023/07/17 03:24:55;;;;;;;7.32;3.95;;;16.60;99.90;;;;;;5038489;28;20233;-79
2023/07/17 03:27:21;;;;;;;8.32;3.85;;;16.80;99.90;;;;;;5038062;28;20199;-79
2023/07/17 03:29:47;;;;;;;8.65;3.97;;;16.80;99.90;;;;;;5038388;28;20178;-79
2023/07/17 03:32:13;;;;;;;6.78;4.13;;;16.90;99.90;;;;;;5037723;28;20171;-79
2023/07/17 03:34:39;;;;;;;6.93;3.50;;;17.00;99.90;;;;;;5036873;28;20258;-79
2023/07/17 03:37:05;;;;;;;4.82;3.80;;;16.90;99.90;;;;;;5038268;28;20183;-79
2023/07/17 03:39:30;;;;;;;7.28;4.47;;;16.80;99.90;;;;;;5038152;28;20187;-79
2023/07/17 03:41:56;;;;;;;8.02;3.90;;;16.70;99.90;;;;;;5037860;28;20254;-79
2023/07/17 03:44:22;;;;;;;6.50;3.80;;;16.60;99.90;;;;;;5037694;28;20221;-79
2023/07/17 03:46:49;;;;;;;8.10;4.22;;;16.50;99.90;;;;;;5037822;28;20196;-82
2023/07/17 03:49:15;;;;;;;5.63;3.20;;;16.50;99.90;;;;;;5038001;28;20205;-83
2023/07/17 03:51:40;;;;;;;5.25;3.63;;;16.50;99.90;;;;;;5038304;28;20171;-82
2023/07/17 03:54:06;;;;;;;9.63;4.18;;;16.40;99.90;;;;;;5037989;28;20179;-82
2023/07/17 03:56:32;;;;;;;9.13;3.22;;;16.40;99.90;;;;;;5037997;28;20171;-82
2023/07/17 03:58:58;;;;;;;7.50;3.70;;;16.40;99.90;;;;;;5036850;28;20199;-82
2023/07/17 04:01:24;;;;;;;5.70;3.50;;;16.40;99.90;;;;;;5036517;28;20187;-82
2023/07/17 04:03:50;;;;;;;5.18;3.42;;;16.40;99.90;;;;;;5037213;28;20189;-82
2023/07/17 04:06:16;;;;;;;7.20;3.40;;;16.40;99.90;;;;;;5036352;28;20182;-82
2023/07/17 04:08:41;;;;;;;5.85;3.28;;;16.30;99.90;;;;;;5037739;28;20222;-82
2023/07/17 04:11:07;;;;;;;7.13;3.70;;;16.40;99.90;;;;;;5036186;28;20551;-82
2023/07/17 04:13:33;;;;;;;5.05;3.55;;;16.40;99.90;;;;;;5036118;28;20648;-82
2023/07/17 04:16:00;;;;;;;7.35;3.75;;;16.30;99.90;;;;;;5037475;28;20270;-82
2023/07/17 04:18:26;;;;;;;9.68;4.07;;;16.30;99.90;;;;;;5035998;28;20202;-82
2023/07/17 04:20:52;;;;;;;5.57;3.35;;;16.30;99.90;;;;;;5036250;28;20202;-82
2023/07/17 04:23:18;;;;;;;4.22;3.40;;;16.20;99.90;;;;;;5036187;28;20179;-82
2023/07/17 04:25:44;;;;;;;7.03;3.95;;;16.20;99.90;;;;;;5037333;28;20167;-81
2023/07/17 04:28:09;;;;;;;5.55;3.47;;;16.10;99.90;;;;;;5037646;28;20206;-83
2023/07/17 04:30:36;;;;;;;6.85;4.07;;;16.10;99.90;;;;;;5038725;28;20182;-83
2023/07/17 04:33:02;;;;;;;6.55;3.53;;;16.10;99.90;;;;;;5039195;28;20221;-83
2023/07/17 04:35:28;;;;;;;6.25;3.38;;;16.00;99.90;;;;;;5038081;28;20175;-82
2023/07/17 04:37:56;;;;;;;5.22;3.50;;;16.00;99.90;;;;;;5037439;28;20206;-83
2023/07/17 04:40:22;;;;;;;6.38;3.30;;;16.00;99.90;;;;;;5038840;28;20175;-83
2023/07/17 04:42:47;;;;;;;6.80;3.58;;;16.00;99.90;;;;;;5038765;28;20182;-83
2023/07/17 04:45:15;;;;;;;6.20;3.60;;;16.10;99.90;;;;;;5038275;28;20242;-82
2023/07/17 04:47:41;;;;;;;6.72;3.38;;;16.10;99.90;;;;;;5036737;28;20218;-83
2023/07/17 04:50:08;;;;;;;6.38;3.22;;;16.10;99.90;;;;;;5037165;28;20636;-82
2023/07/17 04:52:33;;;;;;;6.20;3.08;;;16.10;99.90;;;;;;5035746;28;20648;-80
2023/07/17 04:54:59;;;;;;;7.13;3.72;;;16.20;99.90;;;;;;5035444;28;20209;-80
2023/07/17 04:57:25;;;;;;;4.88;3.20;;;16.20;99.90;;;;;;5034936;28;20199;-80
2023/07/17 04:59:51;;;;;;;5.95;3.42;;;16.20;99.90;;;;;;5035223;28;20170;-80
2023/07/17 05:02:16;;;;;;;4.43;3.17;;;16.20;99.90;;;;;;5036686;28;20246;-79
2023/07/17 05:04:42;;;;;;;5.40;3.30;;;16.30;99.90;;;;;;5036256;28;20619;-80
2023/07/17 05:07:08;;;;;;;6.75;3.10;;;16.30;99.90;;;;;;5036513;28;20198;-80
2023/07/17 05:09:33;;;;;;;11.32;3.50;;;16.40;99.90;;;;;;5036602;28;20203;-80
2023/07/17 05:11:59;;;;;;;6.43;3.47;;;16.40;99.90;;;;;;5035131;28;20266;-80
2023/07/17 05:14:25;;;;;;;4.60;3.10;;;16.40;99.90;;;;;;5034080;28;20278;-80
2023/07/17 05:16:51;;;;;;;7.03;3.60;;;16.40;99.90;;;;;;5033465;28;20216;-79
2023/07/17 05:19:17;;;;;;;5.47;3.20;;;16.50;99.90;;;;;;5033305;28;20179;-79
2023/07/17 05:21:43;;;;;;;5.97;3.58;;;16.50;99.90;;;;;;5034395;28;20186;-79
2023/07/17 05:24:09;;;;;;;6.00;3.03;;;16.60;99.90;;;;;;5034590;28;20182;-79
2023/07/17 05:26:34;;;;;;;4.30;2.95;;;16.70;99.90;;;;;;5033531;28;20270;-79
2023/07/17 05:29:00;;;;;;;9.65;3.83;;;16.70;99.90;;;;;;5034116;28;20301;-79
2023/07/17 05:31:26;;;;;;;5.25;3.10;;;16.80;99.90;;;;;;5036287;28;20221;-79
2023/07/17 05:33:52;;;;;;;7.57;3.72;;;16.80;99.90;;;;;;5036680;28;20186;-78
2023/07/17 05:36:18;;;;;;;5.65;3.58;;;16.90;99.90;;;;;;5035024;28;20182;-78
2023/07/17 05:38:44;;;;;;;7.60;3.20;;;16.90;99.90;;;;;;5034257;28;20202;-78
2023/07/17 05:41:09;;;;;;;6.72;3.38;;;17.00;99.90;;;;;;5035655;28;20215;-78
2023/07/17 05:43:35;;;;;;;6.28;3.42;;;17.10;99.90;;;;;;5035068;28;20179;-78
2023/07/17 05:46:02;;;;;;;6.32;2.95;;;17.10;99.90;;;;;;5035091;28;20511;-78
2023/07/17 05:48:28;;;;;;;7.22;4.45;;;17.10;99.90;;;;;;5033786;28;20214;-77
2023/07/17 05:50:53;;;;;;;7.75;3.60;;;17.10;99.90;;;;;;5035244;28;20167;-78
2023/07/17 05:53:19;;;;;;;8.40;3.83;;;17.10;99.90;;;;;;5034137;28;20172;-78
2023/07/17 05:55:46;;;;;;;7.43;3.55;;;17.10;99.90;;;;;;5035893;28;20179;-78
2023/07/17 05:58:12;;;;;;;9.20;4.05;;;17.20;99.90;;;;;;5035112;28;20620;-78
2023/07/17 06:00:38;;;;;;;6.50;3.30;;;17.30;99.90;;;;;;5036281;28;20171;-78
2023/07/17 06:03:04;;;;;;;9.50;4.03;;;17.30;99.90;;;;;;5037874;28;20171;-78
2023/07/17 06:05:30;;;;;;;5.15;3.35;;;17.40;99.90;;;;;;5036246;28;20189;-77
2023/07/17 06:07:55;;;;;;;8.25;3.33;;;17.50;99.90;;;;;;5035646;28;20661;-78
2023/07/17 06:10:21;;;;;;;7.13;3.72;;;17.50;99.90;;;;;;5034452;28;20179;-78
2023/07/17 06:12:47;;;;;;;6.90;3.40;;;17.50;99.90;;;;;;5035617;28;20171;-77
2023/07/17 06:15:14;;;;;;;6.47;3.47;;;17.60;99.90;;;;;;5033907;28;20207;-77
2023/07/17 06:17:39;;;;;;;5.65;4.13;;;17.60;99.90;;;;;;5033600;28;20199;-77
2023/07/17 06:20:08;;;;;;;7.40;3.75;;;17.60;99.90;;;;;;5034105;28;20191;-77
2023/07/17 06:22:34;;;;;;;6.30;3.38;;;17.70;99.90;;;;;;5035079;28;20171;-77
2023/07/17 06:24:59;;;;;;;10.13;4.53;;;17.70;99.90;;;;;;5034119;28;20245;-77
2023/07/17 06:27:25;;;;;;;6.97;4.60;;;17.70;99.90;;;;;;5035511;28;20302;-78
2023/07/17 06:29:51;;;;;;;8.98;4.20;;;17.70;99.90;;;;;;5033728;28;20213;-78
2023/07/17 06:32:17;;;;;;;7.95;4.60;;;17.70;99.90;;;;;;5033992;28;20636;-78
2023/07/17 06:34:42;;;;;;;10.50;4.47;;;17.70;99.90;;;;;;5036722;28;20201;-78
2023/07/17 06:37:08;;;;;;;7.85;3.70;;;17.80;99.90;;;;;;5037187;28;20683;-78
2023/07/17 06:39:34;;;;;;;9.35;4.03;;;17.90;99.90;;;;;;5039298;28;20593;-78
2023/07/17 06:42:00;;;;;;;8.45;4.30;;;17.90;99.90;;;;;;5037669;28;20616;-78
2023/07/17 06:44:26;;;;;;;8.68;4.68;;;18.00;99.90;;;;;;5037327;28;20175;-77
2023/07/17 06:46:51;;;;;;;10.52;4.68;;;18.10;99.90;;;;;;5037406;28;20226;-78
2023/07/17 06:49:17;;;;;;;7.25;4.10;;;18.20;99.90;;;;;;5038527;28;20198;-77
2023/07/17 06:51:43;;;;;;;9.77;4.72;;;18.20;99.90;;;;;;5037678;28;20229;-77
2023/07/17 06:54:08;;;;;;;10.43;5.03;;;18.30;99.90;;;;;;5037476;28;20648;-77
2023/07/17 06:56:34;;;;;;;10.27;4.90;;;18.20;99.90;;;;;;5038801;28;20250;-77
2023/07/17 06:59:01;;;;;;;9.30;5.03;;;18.20;99.90;;;;;;5039027;28;20225;-77
2023/07/17 07:01:26;;;;;;;9.27;5.07;;;18.20;99.90;;;;;;5037155;28;20183;-77
2023/07/17 07:03:52;;;;;;;11.07;4.93;;;18.20;99.90;;;;;;5038564;28;20178;-77
2023/07/17 07:06:18;;;;;;;10.20;5.70;;;18.20;99.90;;;;;;5038269;28;20186;-77
2023/07/17 07:08:43;;;;;;;11.68;5.82;;;18.20;99.90;;;;;;5036608;28;20241;-77
2023/07/17 07:11:12;;;;;;;9.52;4.75;;;18.30;99.90;;;;;;5036707;28;20179;-77
2023/07/17 07:13:42;;;;;;;8.88;4.78;;;18.40;99.90;;;;;;5038927;28;20187;-77
2023/07/17 07:16:08;;;;;;;9.38;5.30;;;18.50;99.90;;;;;;5037965;28;20585;-78
2023/07/17 07:18:34;;;;;;;16.17;6.18;;;18.50;99.90;;;;;;5037779;28;20195;-77
2023/07/17 07:21:00;;;;;;;10.10;5.25;;;18.50;99.90;;;;;;5036790;28;20217;-78
2023/07/17 07:23:25;;;;;;;10.50;5.53;;;18.60;99.90;;;;;;5037518;28;20191;-78
2023/07/17 07:25:51;;;;;;;11.05;5.25;;;18.60;99.90;;;;;;5037217;28;20179;-78
2023/07/17 07:28:17;;;;;;;12.35;5.45;;;18.70;99.90;;;;;;5038455;28;20207;-79
2023/07/17 07:30:43;;;;;;;12.27;6.35;;;18.70;99.90;;;;;;5038253;28;20256;-78
2023/07/17 07:33:08;;;;;;;10.07;4.80;;;18.60;99.90;;;;;;5038631;28;20167;-79
2023/07/17 07:35:34;;;;;;;12.52;5.57;;;18.70;99.90;;;;;;5040309;28;20652;-79
2023/07/17 07:38:00;;;;;;;10.73;5.57;;;18.70;99.90;;;;;;5039339;28;20211;-78
2023/07/17 07:40:26;;;;;;;9.60;5.97;;;18.70;99.90;;;;;;5038943;28;20644;-78
2023/07/17 07:42:52;;;;;;;12.38;6.13;;;18.80;99.90;;;;;;5039961;28;20201;-78
2023/07/17 07:45:19;;;;;;;14.18;5.97;;;18.90;99.90;;;;;;5037623;28;20688;-78
2023/07/17 07:47:45;;;;;;;8.88;5.47;;;18.90;99.90;;;;;;5038269;28;20290;-78
2023/07/17 07:50:11;;;;;;;8.85;5.57;;;18.90;99.90;;;;;;5037947;28;20171;-78
2023/07/17 07:52:36;;;;;;;9.10;6.03;;;19.00;99.90;;;;;;5036031;28;20706;-78
2023/07/17 07:55:03;;;;;;;13.80;6.40;;;19.00;99.90;;;;;;5037745;28;20195;-78
2023/07/17 07:57:28;;;;;;;10.80;5.63;;;19.10;99.90;;;;;;5037397;28;20241;-78
2023/07/17 07:59:54;;;;;;;9.90;5.35;;;19.10;99.90;;;;;;5035761;28;20183;-78
2023/07/17 08:02:20;;;;;;;13.98;5.72;;;19.20;99.90;;;;;;5037433;28;20184;-79
2023/07/17 08:04:46;;;;;;;10.05;5.88;;;19.20;99.90;;;;;;5038459;28;20172;-78
2023/07/17 08:07:12;;;;;;;15.57;6.10;;;19.20;99.90;;;;;;5039409;28;20644;-79
2023/07/17 08:09:37;;;;;;;11.82;5.93;;;19.10;99.90;;;;;;5039703;28;20205;-78
2023/07/17 08:12:04;;;;;;;10.23;5.63;;;19.10;99.90;;;;;;5037473;28;20183;-78
2023/07/17 08:14:30;;;;;;;9.63;6.13;;;19.40;99.90;;;;;;5037727;28;20206;-78
2023/07/17 08:16:55;;;;;;;10.55;6.22;;;19.70;99.90;;;;;;5038252;28;20583;-78
2023/07/17 08:19:21;;;;;;;11.70;5.75;;;19.70;99.90;;;;;;5038954;28;20183;-79
2023/07/17 08:21:47;;;;;;;10.05;5.80;;;19.80;99.90;;;;;;5039235;28;20186;-78
2023/07/17 08:24:13;;;;;;;10.90;6.10;;;19.60;99.90;;;;;;5039250;28;20609;-78
2023/07/17 08:26:40;;;;;;;12.10;6.10;;;19.60;99.90;;;;;;5038446;28;20179;-79
2023/07/17 08:29:06;;;;;;;13.60;6.13;;;19.70;99.90;;;;;;5037368;28;20375;-79
2023/07/17 08:31:32;;;;;;;14.73;6.47;;;20.00;99.90;;;;;;5040121;28;20171;-79
2023/07/17 08:34:03;;;;;;;12.10;5.65;;;20.20;99.90;;;;;;5037158;28;20266;-80
2023/07/17 08:36:31;;;;;;;9.18;5.25;;;20.60;99.90;;;;;;5038581;28;20156;-79
2023/07/17 08:38:58;;;;;;;10.90;5.60;;;21.20;99.90;;;;;;5036827;28;20238;-79
2023/07/17 08:41:24;;;;;;;10.60;5.70;;;21.80;99.90;;;;;;5038091;28;20176;-79
2023/07/17 08:43:52;;;;;;;9.23;5.22;;;22.30;99.90;;;;;;5039803;28;20171;-80
2023/07/17 08:46:18;;;;;;;11.77;6.50;;;22.70;99.90;;;;;;5038657;28;20175;-80
2023/07/17 08:48:45;;;;;;;9.48;5.35;;;22.70;99.90;;;;;;5037119;28;20675;-80
2023/07/17 08:51:12;;;;;;;11.70;6.05;;;22.90;99.90;;;;;;5037538;28;20663;-79
2023/07/17 08:53:43;;;;;;;15.05;6.10;;;23.00;99.90;;;;;;5037001;28;20171;-79
2023/07/17 08:56:11;;;;;;;9.13;5.30;;;23.20;99.90;;;;;;5039864;28;20152;-80
2023/07/17 08:58:37;;;;;;;17.48;5.53;;;23.60;99.90;;;;;;5038383;28;20203;-80
2023/07/17 09:01:03;;;;;;;9.63;5.22;;;23.00;99.90;;;;;;5040422;28;20167;-79
2023/07/17 09:03:32;;;;;;;8.77;5.07;;;22.80;99.90;;;;;;5038553;28;20183;-79
2023/07/17 09:06:01;;;;;;;9.02;5.10;;;22.50;99.90;;;;;;5039633;28;20186;-80
2023/07/17 09:08:27;;;;;;;10.40;5.28;;;22.90;99.90;;;;;;5042856;28;20234;-80
2023/07/17 09:11:07;;;;;;;12.30;5.30;;;23.10;99.90;;;;;;5058020;28;20191;-80
2023/07/17 09:13:40;;;;;;;7.50;4.53;;;23.60;99.90;;;;;;5043627;28;20213;-79
2023/07/17 09:16:15;;;;;;;10.15;5.10;;;23.00;99.90;;;;;;5037836;28;20163;-79
2023/07/17 09:18:41;;;;;;;12.05;5.15;;;22.80;99.90;;;;;;5036750;28;20182;-79
2023/07/17 09:21:08;;;;;;;10.88;4.90;;;22.90;99.90;;;;;;5036630;28;20168;-79
2023/07/17 09:23:43;;;;;;;9.75;5.07;;;23.20;99.90;;;;;;5036527;28;20171;-81
2023/07/17 09:26:09;;;;;;;8.73;4.88;;;22.20;99.90;;;;;;5035782;28;20210;-77
2023/07/17 09:28:44;;;;;;;9.70;4.93;;;21.70;99.90;;;;;;5035587;28;20247;-77
2023/07/17 09:31:10;;;;;;;9.13;4.82;;;21.80;99.90;;;;;;5035706;28;20270;-78
2023/07/17 09:33:37;;;;;;;9.57;4.90;;;22.10;99.90;;;;;;5035718;28;20197;-80
2023/07/17 09:36:03;;;;;;;9.73;5.20;;;22.30;99.90;;;;;;5036335;28;20175;-79
2023/07/17 09:38:31;;;;;;;8.02;5.10;;;22.20;99.90;;;;;;5034949;28;20240;-79
2023/07/17 09:40:57;;;;;;;8.73;5.20;;;22.10;99.90;;;;;;5036280;28;20236;-79
2023/07/17 09:43:32;;;;;;;7.22;5.13;;;21.80;99.90;;;;;;5034868;28;20183;-80
2023/07/17 09:46:00;;;;;;;11.02;5.18;;;22.10;99.90;;;;;;5036460;28;20659;-80
2023/07/17 09:48:27;;;;;;;10.25;5.68;;;22.10;99.90;;;;;;5034295;28;20648;-79
2023/07/17 09:50:57;;;;;;;10.90;4.93;;;21.60;99.90;;;;;;5036233;28;20572;-79
2023/07/17 09:53:24;;;;;;;9.73;4.88;;;21.30;99.90;;;;;;5034778;28;20175;-78
2023/07/17 09:55:51;;;;;;;10.73;3.90;;;21.70;99.90;;;;;;5037291;28;20167;-78
2023/07/17 09:58:19;;;;;;;7.63;4.47;;;21.60;99.90;;;;;;5034318;28;20249;-79
2023/07/17 10:00:47;;;;;;;7.75;4.22;;;21.80;99.90;;;;;;5034297;28;20608;-78
2023/07/17 10:03:17;;;;;;;10.23;4.28;;;21.70;99.90;;;;;;5035946;28;20174;-78
2023/07/17 10:05:44;;;;;;;7.82;4.70;;;21.40;99.90;;;;;;5037004;28;20174;-80
2023/07/17 10:08:12;;;;;;;7.70;4.20;;;21.40;99.90;;;;;;5035850;28;20215;-80
2023/07/17 10:10:38;;;;;;;8.45;4.40;;;21.80;99.90;;;;;;5038864;28;20232;-80
2023/07/17 10:13:08;;;;;;;7.28;4.50;;;22.00;99.90;;;;;;5039110;28;20171;-80
2023/07/17 10:15:36;;;;;;;6.70;4.05;;;21.70;99.90;;;;;;5040080;28;20238;-81
2023/07/17 10:18:02;;;;;;;9.30;4.65;;;21.20;99.90;;;;;;5040009;28;20202;-79
2023/07/17 10:20:31;;;;;;;7.68;4.57;;;21.10;99.90;;;;;;5038951;28;20183;-79
2023/07/17 10:22:57;;;;;;;8.80;4.15;;;20.70;99.90;;;;;;5038954;28;20217;-80
2023/07/17 10:25:27;;;;;;;10.15;4.60;;;20.90;99.90;;;;;;5037814;28;20175;-79
2023/07/17 10:28:00;;;;;;;10.48;4.82;;;21.40;99.90;;;;;;5037919;28;20294;-79
2023/07/17 10:30:37;;;;;;;8.18;4.28;;;21.60;99.90;;;;;;5038630;28;20274;-81
2023/07/17 10:33:13;;;;;;;11.55;4.95;;;21.70;99.90;;;;;;5039595;28;20175;-80
2023/07/17 10:35:56;;;;;;;7.30;4.47;;;21.70;99.90;;;;;;5040472;28;20193;-79
2023/07/17 10:38:26;;;;;;;7.45;4.70;;;21.80;99.90;;;;;;5038869;28;20229;-80
2023/07/17 10:41:13;;;;;;;10.38;4.50;;;21.80;99.90;;;;;;5039525;28;20182;-79
2023/07/17 10:43:52;;;;;;;9.52;4.50;;;21.80;99.90;;;;;;5037264;28;20182;-80
2023/07/17 10:46:18;;;;;;;9.15;4.20;;;22.00;99.90;;;;;;5037522;28;20566;-80
2023/07/17 10:48:44;;;;;;;6.13;3.97;;;22.30;99.90;;;;;;5037857;28;20207;-79
2023/07/17 10:51:10;;;;;;;7.10;4.72;;;22.40;99.90;;;;;;5038957;28;20529;-79
2023/07/17 10:53:35;;;;;;;7.28;4.55;;;22.40;99.90;;;;;;5037815;28;20175;-79
2023/07/17 10:56:01;;;;;;;9.88;4.72;;;22.20;99.90;;;;;;5038074;28;20548;-80
2023/07/17 10:58:27;;;;;;;9.50;4.70;;;22.00;99.90;;;;;;5038775;28;20264;-79
2023/07/17 11:00:54;;;;;;;9.40;4.03;;;21.90;99.90;;;;;;5038981;28;20175;-79
2023/07/17 11:03:22;;;;;;;6.20;4.25;;;21.80;99.90;;;;;;5039545;28;20179;-78
2023/07/17 11:05:49;;;;;;;8.00;4.20;;;21.80;99.90;;;;;;5038555;28;20713;-77
2023/07/17 11:08:15;;;;;;;9.10;4.45;;;21.90;99.90;;;;;;5039298;28;20223;-78
2023/07/17 11:10:43;;;;;;;6.75;4.50;;;22.00;99.90;;;;;;5037415;28;20252;-77
2023/07/17 11:13:09;;;;;;;8.10;4.70;;;22.20;99.90;;;;;;5037151;28;20183;-76
2023/07/17 11:15:36;;;;;;;8.50;4.30;;;22.20;99.90;;;;;;5037609;28;20175;-77
2023/07/17 11:18:06;;;;;;;8.10;4.45;;;22.10;99.90;;;;;;5036769;28;20206;-77
2023/07/17 11:20:33;;;;;;;8.23;4.10;;;22.00;99.90;;;;;;5037312;28;20179;-78
2023/07/17 11:22:59;;;;;;;6.53;4.00;;;21.90;99.90;;;;;;5040566;28;20185;-77
2023/07/17 11:25:27;;;;;;;8.27;4.13;;;21.80;99.90;;;;;;5039547;28;20587;-79
2023/07/17 11:27:54;;;;;;;13.43;4.97;;;21.70;99.90;;;;;;5043130;28;20199;-77
2023/07/17 11:30:25;;;;;;;11.32;5.10;;;22.00;99.90;;;;;;5039281;28;20583;-78
2023/07/17 11:33:01;;;;;;;7.20;4.60;;;22.10;99.90;;;;;;5043406;28;20156;-78
2023/07/17 11:35:46;;;;;;;11.57;4.82;;;21.90;99.90;;;;;;5038793;28;20183;-77
2023/07/17 11:38:14;;;;;;;8.02;4.72;;;21.90;99.90;;;;;;5037718;28;20696;-78
2023/07/17 11:41:01;;;;;;;6.38;4.22;;;21.80;99.90;;;;;;5039501;28;20653;-78
2023/07/17 11:43:37;;;;;;;17.80;5.43;;;21.70;99.90;;;;;;5036799;28;20317;-77
2023/07/17 11:46:06;;;;;;;10.10;4.05;;;21.60;99.90;;;;;;5037547;28;20725;-78
2023/07/17 11:48:33;;;;;;;10.90;4.32;;;21.70;99.90;;;;;;5038887;28;20574;-79
2023/07/17 11:51:04;;;;;;;9.40;4.53;;;21.80;99.90;;;;;;5037759;28;20175;-78
2023/07/17 11:53:31;;;;;;;31.52;7.32;;;22.10;99.90;;;;;;5038315;28;20172;-78
2023/07/17 11:56:00;;;;;;;16.88;5.95;;;22.70;99.90;;;;;;5038552;28;20171;-78
2023/07/17 11:58:34;;;;;;;8.15;4.38;;;23.10;99.90;;;;;;5036107;28;20289;-78
2023/07/17 12:01:00;;;;;;;9.82;4.78;;;22.80;99.90;;;;;;5037601;28;20286;-78
2023/07/17 12:03:25;;;;;;;12.00;5.28;;;22.30;99.90;;;;;;5039013;28;20663;-78
2023/07/17 12:05:51;;;;;;;11.57;4.78;;;22.10;99.90;;;;;;5037099;28;20190;-78
2023/07/17 12:08:17;;;;;;;8.20;4.70;;;22.00;99.90;;;;;;5035503;28;20247;-79
2023/07/17 12:10:43;;;;;;;10.52;4.97;;;21.80;99.90;;;;;;5037579;28;20183;-78
2023/07/17 12:13:10;;;;;;;9.18;4.88;;;21.70;99.90;;;;;;5038555;28;20234;-78
2023/07/17 12:15:36;;;;;;;10.80;4.78;;;21.60;99.90;;;;;;5037665;28;20187;-78
2023/07/17 12:18:02;;;;;;;8.88;4.55;;;21.50;99.90;;;;;;5037531;28;20206;-77
2023/07/17 12:20:29;;;;;;;10.23;4.45;;;21.50;99.90;;;;;;5036752;28;20266;-79
2023/07/17 12:22:57;;;;;;;11.00;5.32;;;21.50;99.90;;;;;;5038029;28;20574;-78
2023/07/17 12:25:23;;;;;;;11.68;5.38;;;21.70;99.90;;;;;;5037996;28;20179;-78
2023/07/17 12:27:49;;;;;;;13.18;5.32;;;21.70;99.90;;;;;;5037352;28;20195;-78
2023/07/17 12:30:19;;;;;;;10.23;4.53;;;21.60;99.90;;;;;;5038595;28;20258;-79
2023/07/17 12:32:45;;;;;;;10.93;4.88;;;21.80;99.90;;;;;;5038034;28;20648;-78
2023/07/17 12:35:11;;;;;;;8.52;4.68;;;21.90;99.90;;;;;;5038700;28;20179;-78
2023/07/17 12:37:37;;;;;;;10.55;5.25;;;22.00;99.90;;;;;;5037580;28;20195;-77
2023/07/17 12:40:03;;;;;;;7.78;4.32;;;22.30;99.90;;;;;;5037322;28;20175;-78
2023/07/17 12:42:29;;;;;;;9.32;5.15;;;22.30;99.90;;;;;;5039778;28;20179;-78